Time;durP1;ratioP1;P1;durP2;ratioP2;P2;SDS_P1;SDS_P2;PMS_P1;PMS_P2;Temp;Humidity;BMP_temperature;BMP_pressure;BME280_temperature;BME280_humidity;BME280_pressure;Samples;Min_cycle;Max_cycle;Signal;HPM_P1;HPM_P2
2022/02/18 00:00:44;;;;;;;12.80;2.20;;;;;;;;;;4969425;28;20443;-84
2022/02/18 00:03:10;;;;;;;11.20;2.25;;;;;;;;;;4978529;28;20432;-85
2022/02/18 00:05:36;;;;;;;12.77;2.30;;;;;;;;;;4980709;28;20038;-82
2022/02/18 00:08:02;;;;;;;13.93;1.90;;;;;;;;;;4970582;28;20033;-84
2022/02/18 00:10:27;;;;;;;15.60;3.15;;;;;;;;;;4967429;28;20600;-84
2022/02/18 00:12:53;;;;;;;13.15;2.00;;;;;;;;;;4969124;28;20030;-84
2022/02/18 00:15:18;;;;;;;11.27;1.88;;;;;;;;;;4967738;28;20029;-85
2022/02/18 00:17:44;;;;;;;13.80;2.38;;;;;;;;;;4972188;28;20408;-84
2022/02/18 00:20:09;;;;;;;13.23;2.03;;;;;;;;;;4987291;28;20044;-84
2022/02/18 00:22:35;;;;;;;14.50;2.20;;;;;;;;;;4978763;28;20734;-85
2022/02/18 00:25:02;;;;;;;9.80;1.98;;;;;;;;;;4989413;28;20029;-82
2022/02/18 00:27:28;;;;;;;10.73;1.73;;;;;;;;;;4973657;28;20053;-82
2022/02/18 00:29:53;;;;;;;11.23;1.92;;;;;;;;;;4965654;28;20432;-86
2022/02/18 00:32:18;;;;;;;13.82;2.40;;;;;;;;;;4969460;28;20101;-86
2022/02/18 00:34:44;;;;;;;12.10;2.03;;;;;;;;;;4963208;28;20030;-86
2022/02/18 00:37:09;;;;;;;11.05;2.05;;;;;;;;;;4986511;28;20030;-82
2022/02/18 00:39:35;;;;;;;13.23;2.53;;;;;;;;;;4968885;28;20033;-83
2022/02/18 00:42:00;;;;;;;10.77;2.05;;;;;;;;;;4969807;28;20038;-82
2022/02/18 00:44:26;;;;;;;11.05;1.98;;;;;;;;;;4972830;28;20534;-81
2022/02/18 00:46:52;;;;;;;13.50;2.03;;;;;;;;;;4968031;28;20121;-82
2022/02/18 00:49:18;;;;;;;15.25;2.50;;;;;;;;;;4975079;28;20084;-86
2022/02/18 00:51:44;;;;;;;11.18;1.90;;;;;;;;;;4974881;28;20022;-86
2022/02/18 00:54:09;;;;;;;12.98;2.30;;;;;;;;;;4972491;28;20434;-81
2022/02/18 00:56:35;;;;;;;10.00;1.85;;;;;;;;;;4969955;28;20027;-84
2022/02/18 00:59:02;;;;;;;15.00;2.10;;;;;;;;;;4972280;28;20021;-84
2022/02/18 01:01:28;;;;;;;13.98;2.10;;;;;;;;;;4987991;28;20041;-84
2022/02/18 01:03:53;;;;;;;10.52;2.00;;;;;;;;;;4963182;28;20030;-83
2022/02/18 01:06:19;;;;;;;8.38;2.00;;;;;;;;;;4966065;28;20493;-84
2022/02/18 01:08:44;;;;;;;10.50;2.05;;;;;;;;;;4963792;28;20022;-86
2022/02/18 01:11:10;;;;;;;10.02;2.20;;;;;;;;;;4970317;28;20029;-85
2022/02/18 01:13:35;;;;;;;10.57;2.15;;;;;;;;;;4977097;28;20121;-84
2022/02/18 01:16:01;;;;;;;12.57;2.15;;;;;;;;;;4992018;28;20084;-84
2022/02/18 01:18:26;;;;;;;10.50;1.98;;;;;;;;;;4980061;28;20050;-83
2022/02/18 01:20:52;;;;;;;13.82;2.75;;;;;;;;;;4983032;28;20141;-84
2022/02/18 01:23:17;;;;;;;10.35;1.85;;;;;;;;;;4987495;28;20026;-82
2022/02/18 01:25:43;;;;;;;10.65;2.67;;;;;;;;;;4990000;28;20125;-84
2022/02/18 01:28:08;;;;;;;11.15;2.20;;;;;;;;;;4990130;28;20054;-85
2022/02/18 01:30:33;;;;;;;13.50;2.15;;;;;;;;;;4987034;28;20022;-82
2022/02/18 01:32:59;;;;;;;14.35;2.35;;;;;;;;;;4988821;28;20032;-86
2022/02/18 01:35:25;;;;;;;10.15;2.15;;;;;;;;;;4989111;28;20029;-85
2022/02/18 01:37:53;;;;;;;9.48;2.05;;;;;;;;;;4998454;28;20044;-84
2022/02/18 01:40:20;;;;;;;12.45;2.40;;;;;;;;;;4990265;28;20030;-84
2022/02/18 01:42:46;;;;;;;11.38;2.38;;;;;;;;;;4991596;28;20064;-85
2022/02/18 01:45:11;;;;;;;11.15;2.33;;;;;;;;;;5009640;28;20458;-83
2022/02/18 01:47:36;;;;;;;11.68;2.60;;;;;;;;;;4993478;28;20116;-84
2022/02/18 01:50:04;;;;;;;10.20;2.38;;;;;;;;;;4993067;28;20053;-84
2022/02/18 01:52:32;;;;;;;11.98;2.72;;;;;;;;;;4993022;28;20029;-84
2022/02/18 01:54:58;;;;;;;11.43;2.53;;;;;;;;;;4990526;28;20399;-86
2022/02/18 01:57:28;;;;;;;9.90;2.53;;;;;;;;;;5003458;28;20113;-86
2022/02/18 01:59:53;;;;;;;15.00;3.00;;;;;;;;;;4989221;28;20491;-82
2022/02/18 02:02:18;;;;;;;12.25;2.80;;;;;;;;;;4990941;28;20022;-86
2022/02/18 02:04:45;;;;;;;13.00;3.20;;;;;;;;;;4988361;28;20121;-84
2022/02/18 02:07:11;;;;;;;16.13;3.05;;;;;;;;;;5002990;28;20030;-86
2022/02/18 02:09:37;;;;;;;14.02;2.83;;;;;;;;;;4986935;28;20039;-84
2022/02/18 02:12:06;;;;;;;12.85;3.45;;;;;;;;;;5009182;28;20042;-84
2022/02/18 02:14:31;;;;;;;12.02;2.40;;;;;;;;;;5008598;28;20703;-86
2022/02/18 02:16:56;;;;;;;14.05;2.65;;;;;;;;;;5010470;28;20061;-85
2022/02/18 02:19:22;;;;;;;13.23;3.08;;;;;;;;;;4981572;28;20026;-86
2022/02/18 02:21:54;;;;;;;11.85;2.60;;;;;;;;;;4984764;28;20495;-83
2022/02/18 02:24:19;;;;;;;12.55;2.47;;;;;;;;;;4966706;28;20044;-84
2022/02/18 02:26:45;;;;;;;10.27;2.47;;;;;;;;;;4971314;28;20398;-83
2022/02/18 02:29:11;;;;;;;10.85;2.67;;;;;;;;;;4968236;28;20034;-85
2022/02/18 02:31:36;;;;;;;10.20;2.35;;;;;;;;;;4970335;28;20026;-83
2022/02/18 02:34:03;;;;;;;19.15;3.50;;;;;;;;;;4967467;28;20034;-84
2022/02/18 02:36:29;;;;;;;12.40;2.97;;;;;;;;;;4969804;28;20036;-82
2022/02/18 02:38:54;;;;;;;13.52;2.63;;;;;;;;;;4970649;28;20030;-83
2022/02/18 02:41:19;;;;;;;13.13;2.58;;;;;;;;;;4987125;28;20034;-84
2022/02/18 02:43:45;;;;;;;15.18;2.88;;;;;;;;;;4963355;28;20038;-84
2022/02/18 02:46:10;;;;;;;18.67;3.22;;;;;;;;;;4973972;28;20472;-84
2022/02/18 02:48:35;;;;;;;11.77;2.42;;;;;;;;;;4972153;28;20092;-85
2022/02/18 02:51:02;;;;;;;11.75;2.40;;;;;;;;;;4967631;28;20023;-84
2022/02/18 02:53:28;;;;;;;18.75;3.08;;;;;;;;;;4985001;28;20035;-82
2022/02/18 02:55:53;;;;;;;13.50;2.40;;;;;;;;;;4967175;28;20030;-84
2022/02/18 02:58:18;;;;;;;16.13;2.65;;;;;;;;;;4968454;28;20031;-86
2022/02/18 03:00:44;;;;;;;17.15;2.60;;;;;;;;;;4967621;28;20092;-86
2022/02/18 03:03:09;;;;;;;17.05;3.20;;;;;;;;;;4970591;28;20083;-83
2022/02/18 03:05:34;;;;;;;14.80;3.22;;;;;;;;;;4984418;28;20061;-84
2022/02/18 03:08:03;;;;;;;14.88;2.90;;;;;;;;;;4984708;28;20058;-83
2022/02/18 03:10:28;;;;;;;18.10;2.55;;;;;;;;;;4970933;28;20383;-83
2022/02/18 03:12:53;;;;;;;16.20;2.90;;;;;;;;;;4970898;28;20046;-82
2022/02/18 03:15:19;;;;;;;18.42;3.05;;;;;;;;;;4969363;28;20026;-84
2022/02/18 03:17:44;;;;;;;18.45;3.00;;;;;;;;;;4970811;28;20050;-81
2022/02/18 03:20:10;;;;;;;19.88;3.50;;;;;;;;;;4971845;28;20034;-84
2022/02/18 03:22:35;;;;;;;18.63;2.78;;;;;;;;;;4977144;28;20188;-86
2022/02/18 03:25:01;;;;;;;19.65;3.08;;;;;;;;;;4990631;28;20077;-86
2022/02/18 03:27:26;;;;;;;20.30;3.63;;;;;;;;;;4998194;28;20379;-82
2022/02/18 03:29:51;;;;;;;16.65;2.50;;;;;;;;;;4976715;28;20399;-84
2022/02/18 03:32:17;;;;;;;17.88;2.72;;;;;;;;;;4972871;28;20030;-85
2022/02/18 03:34:42;;;;;;;19.73;3.88;;;;;;;;;;4977312;28;20026;-84
2022/02/18 03:37:07;;;;;;;16.80;2.83;;;;;;;;;;4971341;28;20030;-84
2022/02/18 03:39:33;;;;;;;22.60;3.28;;;;;;;;;;4974018;28;20033;-82
2022/02/18 03:41:58;;;;;;;17.92;2.80;;;;;;;;;;4993018;28;20038;-86
2022/02/18 03:44:24;;;;;;;20.45;3.13;;;;;;;;;;4987836;28;20022;-86
2022/02/18 03:46:49;;;;;;;21.67;3.30;;;;;;;;;;4980918;28;20034;-84
2022/02/18 03:49:14;;;;;;;16.15;2.85;;;;;;;;;;4978815;28;20023;-83
2022/02/18 03:51:40;;;;;;;13.40;2.90;;;;;;;;;;4992050;28;20026;-85
2022/02/18 03:54:05;;;;;;;15.95;2.53;;;;;;;;;;4987003;28;20100;-84
2022/02/18 03:56:31;;;;;;;21.52;3.30;;;;;;;;;;4977657;28;20022;-83
2022/02/18 03:58:56;;;;;;;18.38;2.75;;;;;;;;;;4989521;28;20025;-85
2022/02/18 04:01:22;;;;;;;19.02;3.78;;;;;;;;;;4987495;28;20091;-83
2022/02/18 04:03:47;;;;;;;21.75;3.20;;;;;;;;;;4988104;28;20081;-82
2022/02/18 04:06:12;;;;;;;23.08;3.05;;;;;;;;;;4973768;28;20038;-84
2022/02/18 04:08:38;;;;;;;18.15;2.55;;;;;;;;;;4979457;28;20041;-85
2022/02/18 04:11:04;;;;;;;16.63;2.42;;;;;;;;;;4975035;28;20045;-86
2022/02/18 04:13:29;;;;;;;19.38;3.10;;;;;;;;;;4974137;28;20028;-84
2022/02/18 04:15:55;;;;;;;15.60;2.70;;;;;;;;;;4994933;28;20040;-84
2022/02/18 04:18:21;;;;;;;18.63;3.05;;;;;;;;;;4986823;28;20062;-84
2022/02/18 04:20:46;;;;;;;20.67;2.75;;;;;;;;;;4985648;28;20530;-84
2022/02/18 04:23:11;;;;;;;16.73;3.10;;;;;;;;;;4968041;28;20026;-82
2022/02/18 04:25:37;;;;;;;22.27;3.03;;;;;;;;;;4966634;28;20364;-86
2022/02/18 04:28:05;;;;;;;22.55;3.30;;;;;;;;;;4983299;28;20423;-82
2022/02/18 04:30:31;;;;;;;26.63;3.78;;;;;;;;;;4970395;28;20030;-85
2022/02/18 04:32:57;;;;;;;20.15;3.17;;;;;;;;;;4964550;28;20034;-85
2022/02/18 04:35:23;;;;;;;18.17;3.15;;;;;;;;;;4967765;28;20026;-83
2022/02/18 04:37:48;;;;;;;15.25;2.83;;;;;;;;;;4970599;28;20126;-84
2022/02/18 04:40:15;;;;;;;21.92;2.85;;;;;;;;;;4969252;28;20539;-84
2022/02/18 04:42:41;;;;;;;22.42;3.15;;;;;;;;;;4967123;28;20037;-85
2022/02/18 04:45:06;;;;;;;19.13;3.13;;;;;;;;;;4986522;28;20022;-81
2022/02/18 04:47:32;;;;;;;21.40;3.17;;;;;;;;;;4987771;28;20030;-83
2022/02/18 04:49:57;;;;;;;19.95;3.17;;;;;;;;;;4981227;28;20068;-84
2022/02/18 04:52:23;;;;;;;14.95;2.67;;;;;;;;;;4961171;28;20508;-85
2022/02/18 04:54:48;;;;;;;20.05;3.20;;;;;;;;;;4979911;28;20806;-84
2022/02/18 04:57:14;;;;;;;23.00;3.45;;;;;;;;;;4961154;28;20391;-85
2022/02/18 04:59:39;;;;;;;19.83;3.30;;;;;;;;;;4982698;28;20122;-85
2022/02/18 05:02:05;;;;;;;20.92;2.92;;;;;;;;;;4980040;28;20063;-84
2022/02/18 05:04:30;;;;;;;20.73;3.20;;;;;;;;;;4965052;28;20053;-82
2022/02/18 05:06:56;;;;;;;15.88;3.30;;;;;;;;;;4969510;28;20030;-82
2022/02/18 05:09:21;;;;;;;15.65;2.53;;;;;;;;;;4984765;28;20031;-84
2022/02/18 05:11:46;;;;;;;22.10;3.28;;;;;;;;;;4983429;28;20030;-86
2022/02/18 05:14:12;;;;;;;15.52;2.55;;;;;;;;;;4969026;28;20441;-84
2022/02/18 05:16:37;;;;;;;15.23;3.17;;;;;;;;;;4988255;28;20058;-84
2022/02/18 05:19:04;;;;;;;25.05;3.42;;;;;;;;;;4979538;28;20042;-85
2022/02/18 05:21:29;;;;;;;17.92;3.33;;;;;;;;;;4978550;28;20045;-84
2022/02/18 05:23:55;;;;;;;21.00;2.78;;;;;;;;;;4974604;28;20026;-83
2022/02/18 05:26:20;;;;;;;17.65;2.63;;;;;;;;;;4975676;28;20018;-84
2022/02/18 05:28:45;;;;;;;19.13;3.95;;;;;;;;;;4994434;28;20029;-82
2022/02/18 05:31:11;;;;;;;20.63;2.95;;;;;;;;;;4970848;28;20038;-82
2022/02/18 05:33:36;;;;;;;15.38;2.60;;;;;;;;;;4976341;28;20164;-83
2022/02/18 05:36:02;;;;;;;18.30;3.72;;;;;;;;;;4971061;28;20041;-84
2022/02/18 05:38:28;;;;;;;19.77;2.88;;;;;;;;;;4995185;28;20113;-85
2022/02/18 05:40:54;;;;;;;14.75;2.88;;;;;;;;;;4989246;28;20617;-82
2022/02/18 05:43:19;;;;;;;19.98;3.08;;;;;;;;;;4971566;28;20514;-83
2022/02/18 05:45:44;;;;;;;25.83;3.92;;;;;;;;;;4975456;28;20026;-84
2022/02/18 05:48:10;;;;;;;14.00;3.00;;;;;;;;;;4971326;28;20487;-84
2022/02/18 05:50:35;;;;;;;19.65;2.78;;;;;;;;;;4972998;28;20435;-82
2022/02/18 05:53:00;;;;;;;15.93;2.67;;;;;;;;;;4974217;28;20046;-84
2022/02/18 05:55:26;;;;;;;12.82;2.50;;;;;;;;;;4967826;28;20033;-83
2022/02/18 05:57:51;;;;;;;19.13;3.00;;;;;;;;;;4989451;28;20034;-84
2022/02/18 06:00:17;;;;;;;16.23;3.20;;;;;;;;;;4977995;28;20025;-82
2022/02/18 06:02:43;;;;;;;15.85;2.88;;;;;;;;;;4972405;28;20026;-85
2022/02/18 06:05:10;;;;;;;17.48;3.25;;;;;;;;;;4984909;28;20076;-84
2022/02/18 06:07:35;;;;;;;14.05;2.67;;;;;;;;;;4974242;28;20034;-84
2022/02/18 06:10:01;;;;;;;19.05;2.60;;;;;;;;;;4961793;28;20492;-82
2022/02/18 06:12:27;;;;;;;17.98;2.72;;;;;;;;;;4970870;28;20046;-84
2022/02/18 06:14:53;;;;;;;12.07;2.30;;;;;;;;;;4968656;28;20026;-84
2022/02/18 06:17:18;;;;;;;15.00;2.40;;;;;;;;;;4971271;28;20406;-83
2022/02/18 06:19:44;;;;;;;17.60;3.20;;;;;;;;;;4985114;28;20027;-82
2022/02/18 06:22:10;;;;;;;23.50;3.38;;;;;;;;;;4981602;28;20022;-82
2022/02/18 06:24:35;;;;;;;18.17;2.42;;;;;;;;;;4970967;28;20042;-84
2022/02/18 06:27:02;;;;;;;20.70;2.65;;;;;;;;;;4986200;28;20062;-82
2022/02/18 06:29:27;;;;;;;15.75;2.75;;;;;;;;;;4972458;28;20456;-84
2022/02/18 06:31:53;;;;;;;15.43;2.22;;;;;;;;;;4968558;28;20026;-84
2022/02/18 06:34:18;;;;;;;14.07;2.53;;;;;;;;;;4964325;28;20042;-84
2022/02/18 06:36:43;;;;;;;17.65;2.28;;;;;;;;;;4967911;28;20033;-85
2022/02/18 06:39:09;;;;;;;16.55;3.05;;;;;;;;;;4974867;28;20040;-84
2022/02/18 06:41:35;;;;;;;19.50;2.92;;;;;;;;;;4979689;28;20470;-84
2022/02/18 06:44:00;;;;;;;12.32;2.30;;;;;;;;;;4971530;28;20541;-85
2022/02/18 06:46:25;;;;;;;18.40;2.47;;;;;;;;;;4994285;28;20121;-85
2022/02/18 06:48:51;;;;;;;21.05;3.28;;;;;;;;;;4975979;28;20036;-85
2022/02/18 06:51:16;;;;;;;19.17;2.92;;;;;;;;;;4972618;28;20026;-84
2022/02/18 06:53:42;;;;;;;13.77;2.35;;;;;;;;;;4980936;28;20030;-84
2022/02/18 06:56:08;;;;;;;14.70;2.28;;;;;;;;;;4970393;28;20030;-85
2022/02/18 06:58:34;;;;;;;13.90;2.45;;;;;;;;;;4974231;28;20500;-84
2022/02/18 07:00:59;;;;;;;12.95;2.53;;;;;;;;;;4987114;28;20030;-82
2022/02/18 07:03:25;;;;;;;14.88;2.90;;;;;;;;;;4966594;28;20033;-84
2022/02/18 07:05:50;;;;;;;14.10;2.45;;;;;;;;;;4980432;28;20394;-82
2022/02/18 07:08:17;;;;;;;18.13;2.78;;;;;;;;;;4969870;28;20112;-86
2022/02/18 07:10:42;;;;;;;17.98;3.10;;;;;;;;;;4987038;28;20057;-85
2022/02/18 07:13:08;;;;;;;20.98;3.20;;;;;;;;;;4966111;28;20042;-82
2022/02/18 07:15:34;;;;;;;18.13;3.67;;;;;;;;;;4959631;28;20118;-85
2022/02/18 07:18:01;;;;;;;15.35;3.10;;;;;;;;;;4980950;28;20524;-83
2022/02/18 07:20:27;;;;;;;13.93;2.22;;;;;;;;;;5010691;28;20045;-82
2022/02/18 07:22:53;;;;;;;19.67;2.95;;;;;;;;;;5011097;28;20029;-85
2022/02/18 07:25:20;;;;;;;17.98;2.80;;;;;;;;;;5009070;28;20030;-85
2022/02/18 07:27:46;;;;;;;11.65;2.70;;;;;;;;;;5005861;28;20026;-82
2022/02/18 07:30:12;;;;;;;9.52;2.70;;;;;;;;;;4989429;28;20052;-84
2022/02/18 07:32:38;;;;;;;12.52;3.08;;;;;;;;;;4997741;28;20018;-83
2022/02/18 07:35:04;;;;;;;16.75;3.40;;;;;;;;;;5013393;28;20044;-85
2022/02/18 07:37:29;;;;;;;12.38;2.60;;;;;;;;;;4991734;28;20044;-84
2022/02/18 07:39:54;;;;;;;14.05;3.33;;;;;;;;;;4991740;28;20022;-84
2022/02/18 07:42:20;;;;;;;15.25;2.83;;;;;;;;;;4989303;28;20445;-84
2022/02/18 07:44:48;;;;;;;13.85;3.13;;;;;;;;;;4993783;28;20044;-82
2022/02/18 07:47:16;;;;;;;10.00;3.15;;;;;;;;;;4990254;28;20022;-84
2022/02/18 07:49:46;;;;;;;13.88;3.20;;;;;;;;;;4996396;28;20099;-84
2022/02/18 07:52:14;;;;;;;11.30;3.40;;;;;;;;;;4990442;28;20395;-83
2022/02/18 07:54:41;;;;;;;17.08;3.33;;;;;;;;;;5004007;28;20026;-84
2022/02/18 07:57:07;;;;;;;12.25;3.33;;;;;;;;;;4991943;28;20117;-85
2022/02/18 07:59:32;;;;;;;14.85;3.78;;;;;;;;;;4993727;28;20530;-85
2022/02/18 08:02:00;;;;;;;8.60;2.88;;;;;;;;;;4990189;28;20042;-84
2022/02/18 08:04:27;;;;;;;9.65;3.15;;;;;;;;;;4989425;28;20033;-84
2022/02/18 08:06:58;;;;;;;9.68;3.38;;;;;;;;;;4989027;28;20771;-85
2022/02/18 08:09:24;;;;;;;13.30;3.50;;;;;;;;;;5011039;28;20491;-82
2022/02/18 08:11:56;;;;;;;14.02;4.45;;;;;;;;;;4992137;28;20026;-85
2022/02/18 08:14:22;;;;;;;15.75;4.15;;;;;;;;;;5007469;28;20028;-82
2022/02/18 08:16:50;;;;;;;11.52;3.78;;;;;;;;;;4997375;28;20026;-83
2022/02/18 08:19:20;;;;;;;9.43;3.28;;;;;;;;;;5009975;28;20498;-83
2022/02/18 08:21:50;;;;;;;13.13;3.58;;;;;;;;;;5009712;28;20475;-84
2022/02/18 08:24:18;;;;;;;7.97;3.20;;;;;;;;;;4991400;28;20030;-84
2022/02/18 08:26:51;;;;;;;12.25;3.83;;;;;;;;;;4991025;28;20041;-83
2022/02/18 08:29:21;;;;;;;8.88;2.78;;;;;;;;;;4990221;28;20026;-82
2022/02/18 08:31:47;;;;;;;11.82;3.42;;;;;;;;;;4987036;28;20510;-82
2022/02/18 08:34:12;;;;;;;13.30;3.22;;;;;;;;;;4989519;28;20026;-84
2022/02/18 08:36:38;;;;;;;9.63;3.58;;;;;;;;;;4989169;28;20104;-82
2022/02/18 08:39:06;;;;;;;12.52;3.30;;;;;;;;;;5010603;28;20034;-82
2022/02/18 08:41:36;;;;;;;12.07;3.60;;;;;;;;;;5007074;28;20514;-83
2022/02/18 08:44:02;;;;;;;8.70;3.30;;;;;;;;;;5008299;28;20033;-81
2022/02/18 08:46:29;;;;;;;12.48;3.33;;;;;;;;;;4991397;28;20075;-84
2022/02/18 08:48:54;;;;;;;10.80;3.10;;;;;;;;;;4992174;28;20124;-83
2022/02/18 08:51:20;;;;;;;9.90;3.15;;;;;;;;;;5010185;28;20472;-83
2022/02/18 08:53:45;;;;;;;10.88;3.75;;;;;;;;;;5004280;28;20030;-81
2022/02/18 08:56:11;;;;;;;8.75;2.55;;;;;;;;;;4994013;28;20140;-82
2022/02/18 08:58:37;;;;;;;9.35;2.50;;;;;;;;;;4991576;28;20172;-82
2022/02/18 09:01:02;;;;;;;11.68;2.92;;;;;;;;;;4989291;28;20116;-81
2022/02/18 09:03:29;;;;;;;13.13;2.60;;;;;;;;;;5012475;28;20414;-84
2022/02/18 09:05:55;;;;;;;9.30;2.63;;;;;;;;;;4988596;28;20050;-81
2022/02/18 09:08:21;;;;;;;9.18;2.20;;;;;;;;;;5009634;28;20411;-83
2022/02/18 09:10:49;;;;;;;7.43;2.30;;;;;;;;;;4991534;28;20121;-83
2022/02/18 09:13:15;;;;;;;10.52;2.30;;;;;;;;;;4991512;28;20018;-84
2022/02/18 09:15:40;;;;;;;5.35;2.22;;;;;;;;;;4992041;28;20036;-84
2022/02/18 09:18:06;;;;;;;7.70;2.38;;;;;;;;;;4992422;28;20479;-84
2022/02/18 09:20:33;;;;;;;8.98;2.17;;;;;;;;;;5008020;28;20084;-81
2022/02/18 09:22:59;;;;;;;7.97;2.17;;;;;;;;;;4988187;28;20049;-84
2022/02/18 09:25:24;;;;;;;9.88;2.08;;;;;;;;;;5011284;28;20261;-83
2022/02/18 09:28:04;;;;;;;6.15;2.20;;;;;;;;;;4990801;28;20036;-83
2022/02/18 09:30:44;;;;;;;8.55;2.20;;;;;;;;;;4991691;28;20026;-82
2022/02/18 09:33:14;;;;;;;6.15;1.60;;;;;;;;;;4994498;28;20026;-84
2022/02/18 09:35:44;;;;;;;5.18;1.83;;;;;;;;;;4992671;28;20018;-82
2022/02/18 09:38:11;;;;;;;7.32;2.15;;;;;;;;;;5012123;28;20018;-80
2022/02/18 09:40:43;;;;;;;5.25;2.03;;;;;;;;;;4987245;28;20037;-82
2022/02/18 09:43:15;;;;;;;6.23;1.70;;;;;;;;;;4986443;28;20029;-84
2022/02/18 09:45:43;;;;;;;5.77;2.00;;;;;;;;;;4991708;28;20323;-83
2022/02/18 09:48:15;;;;;;;6.68;1.85;;;;;;;;;;4990858;28;20311;-83
2022/02/18 09:50:44;;;;;;;3.33;1.70;;;;;;;;;;4993277;28;20030;-83
2022/02/18 09:53:20;;;;;;;5.22;2.00;;;;;;;;;;4993366;28;20120;-83
2022/02/18 09:55:46;;;;;;;2.63;1.35;;;;;;;;;;4992249;28;20467;-83
2022/02/18 09:58:13;;;;;;;4.55;1.90;;;;;;;;;;4990829;28;20022;-81
2022/02/18 10:00:39;;;;;;;3.88;1.90;;;;;;;;;;4987007;28;20037;-84
2022/02/18 10:03:12;;;;;;;4.82;2.10;;;;;;;;;;4991974;28;20037;-83
2022/02/18 10:05:45;;;;;;;3.75;1.95;;;;;;;;;;4993189;28;20034;-82
2022/02/18 10:08:18;;;;;;;3.60;1.60;;;;;;;;;;4993032;28;20440;-81
2022/02/18 10:11:07;;;;;;;6.90;1.88;;;;;;;;;;5009282;28;20092;-83
2022/02/18 10:13:42;;;;;;;4.63;1.90;;;;;;;;;;4994823;28;20040;-83
2022/02/18 10:16:22;;;;;;;6.13;1.98;;;;;;;;;;5002175;28;20498;-83
2022/02/18 10:18:55;;;;;;;3.60;1.63;;;;;;;;;;5013248;28;20063;-81
2022/02/18 10:21:27;;;;;;;3.15;1.63;;;;;;;;;;4995627;28;20478;-83
2022/02/18 10:24:22;;;;;;;4.18;1.60;;;;;;;;;;4995787;28;20501;-82
2022/02/18 10:26:50;;;;;;;3.53;1.67;;;;;;;;;;5015655;28;20030;-83
2022/02/18 10:29:24;;;;;;;4.95;1.70;;;;;;;;;;4995791;28;20076;-82
2022/02/18 10:32:24;;;;;;;3.30;1.70;;;;;;;;;;4993154;28;20475;-84
2022/02/18 10:35:04;;;;;;;3.75;1.50;;;;;;;;;;4989328;28;20058;-83
2022/02/18 10:37:30;;;;;;;3.65;1.60;;;;;;;;;;4993793;28;20458;-83
2022/02/18 10:40:13;;;;;;;2.90;1.33;;;;;;;;;;5012261;28;20036;-84
2022/02/18 10:42:46;;;;;;;2.55;1.45;;;;;;;;;;4990548;28;20421;-83
2022/02/18 10:45:27;;;;;;;2.92;1.60;;;;;;;;;;4996584;28;20045;-84
2022/02/18 10:48:21;;;;;;;3.80;1.40;;;;;;;;;;4996072;28;20433;-83
2022/02/18 10:51:27;;;;;;;3.03;1.38;;;;;;;;;;4992312;28;20040;-81
2022/02/18 10:54:09;;;;;;;3.33;1.73;;;;;;;;;;4993508;28;20029;-84
2022/02/18 10:56:36;;;;;;;3.17;1.40;;;;;;;;;;4999520;28;20466;-83
2022/02/18 10:59:01;;;;;;;2.25;1.30;;;;;;;;;;4992663;28;20018;-82
2022/02/18 11:01:27;;;;;;;2.53;1.38;;;;;;;;;;4992535;28;20045;-83
2022/02/18 11:04:04;;;;;;;3.40;1.58;;;;;;;;;;4997065;28;20079;-84
2022/02/18 11:06:32;;;;;;;4.40;1.45;;;;;;;;;;5015313;28;20022;-83
2022/02/18 11:09:53;;;;;;;;;;;;;;;;;;;;;
2022/02/18 11:12:24;;;;;;;3.22;1.40;;;;;;;;;;5008409;28;20378;-84
2022/02/18 11:15:01;;;;;;;4.45;1.60;;;;;;;;;;4992555;28;20065;-81
2022/02/18 11:17:33;;;;;;;1.80;1.25;;;;;;;;;;4992730;28;20498;-83
2022/02/18 11:19:58;;;;;;;2.25;1.10;;;;;;;;;;4998043;28;20026;-84
2022/02/18 11:22:30;;;;;;;2.85;1.20;;;;;;;;;;4982557;28;20521;-81
2022/02/18 11:24:59;;;;;;;2.25;1.25;;;;;;;;;;4975334;28;20113;-82
2022/02/18 11:27:29;;;;;;;2.10;1.30;;;;;;;;;;4977696;28;20030;-83
2022/02/18 11:30:00;;;;;;;2.58;1.20;;;;;;;;;;4981780;28;20125;-82
2022/02/18 11:32:30;;;;;;;1.90;1.20;;;;;;;;;;4975431;28;20122;-82
2022/02/18 11:35:05;;;;;;;2.78;1.38;;;;;;;;;;4984017;28;20022;-81
2022/02/18 11:38:18;;;;;;;2.22;1.10;;;;;;;;;;4982918;28;20534;-83
2022/02/18 11:41:05;;;;;;;3.20;1.20;;;;;;;;;;4937989;28;20041;-83
2022/02/18 11:43:57;;;;;;;1.45;1.00;;;;;;;;;;4997624;28;20027;-84
2022/02/18 11:46:34;;;;;;;2.25;1.38;;;;;;;;;;4973056;28;20030;-83
2022/02/18 11:49:08;;;;;;;2.00;1.30;;;;;;;;;;4978424;28;20049;-83
2022/02/18 11:51:55;;;;;;;3.63;2.00;;;;;;;;;;4978626;28;20041;-83
2022/02/18 11:54:33;;;;;;;2.05;1.35;;;;;;;;;;4977971;28;20037;-83
2022/02/18 11:57:07;;;;;;;2.67;1.50;;;;;;;;;;4979162;28;20054;-83
2022/02/18 11:59:50;;;;;;;3.33;1.95;;;;;;;;;;4985663;28;20049;-83
2022/02/18 12:02:16;;;;;;;4.20;1.70;;;;;;;;;;4977654;28;20038;-83
2022/02/18 12:05:14;;;;;;;4.72;2.22;;;;;;;;;;4981705;28;20049;-81
2022/02/18 12:08:27;;;;;;;;;;;;;;;;;;;;;
2022/02/18 12:11:06;;;;;;;;;;;;;;;;;;;;;
2022/02/18 12:14:01;;;;;;;2.50;1.40;;;;;;;;;;5000400;28;20487;-83
2022/02/18 12:16:44;;;;;;;1.80;1.30;;;;;;;;;;4999721;28;20022;-83
2022/02/18 12:19:17;;;;;;;9.98;6.68;;;;;;;;;;4984933;28;20049;-81
2022/02/18 12:22:05;;;;;;;3.38;1.20;;;;;;;;;;4992965;28;20030;-82
2022/02/18 12:24:39;;;;;;;2.53;1.15;;;;;;;;;;4991858;28;20391;-83
2022/02/18 12:27:31;;;;;;;2.90;1.40;;;;;;;;;;4989251;28;20049;-83
2022/02/18 12:30:29;;;;;;;4.57;1.10;;;;;;;;;;4989462;28;20160;-83
2022/02/18 12:33:06;;;;;;;2.15;1.13;;;;;;;;;;4990036;28;20053;-81
2022/02/18 12:35:41;;;;;;;2.70;1.20;;;;;;;;;;4988125;28;20037;-82
2022/02/18 12:38:15;;;;;;;2.80;1.20;;;;;;;;;;4994167;28;20026;-83
2022/02/18 12:40:42;;;;;;;4.20;1.30;;;;;;;;;;4990653;28;20107;-81
2022/02/18 12:47:16;;;;;;;2.03;1.25;;;;;;;;;;4988851;28;20033;-82
2022/02/18 12:49:57;;;;;;;;;;;;;;;;;;;;;
2022/02/18 12:52:55;;;;;;;2.75;1.50;;;;;;;;;;4992086;28;20691;-84
2022/02/18 12:55:24;;;;;;;4.47;1.80;;;;;;;;;;4985533;28;20053;-80
2022/02/18 12:57:51;;;;;;;3.15;1.20;;;;;;;;;;4991791;28;20053;-84
2022/02/18 13:00:18;;;;;;;2.17;0.75;;;;;;;;;;4993675;28;20076;-82
2022/02/18 13:03:17;;;;;;;3.72;0.95;;;;;;;;;;5005377;28;20026;-82
2022/02/18 13:05:44;;;;;;;4.85;1.00;;;;;;;;;;5001353;28;20030;-84
2022/02/18 13:08:19;;;;;;;6.28;1.20;;;;;;;;;;4989394;28;20037;-83
2022/02/18 13:10:50;;;;;;;7.80;1.00;;;;;;;;;;5003991;28;20553;-83
2022/02/18 13:13:19;;;;;;;9.20;1.08;;;;;;;;;;4989881;28;20026;-84
2022/02/18 13:16:20;;;;;;;5.82;0.95;;;;;;;;;;4989515;28;20034;-83
2022/02/18 13:19:06;;;;;;;6.35;1.13;;;;;;;;;;4977432;28;20065;-83
2022/02/18 13:21:51;;;;;;;4.35;1.25;;;;;;;;;;4970866;28;20066;-83
2022/02/18 13:24:48;;;;;;;6.65;1.15;;;;;;;;;;4966833;28;20034;-84
2022/02/18 13:27:22;;;;;;;8.57;1.15;;;;;;;;;;4990178;28;20109;-82
2022/02/18 13:29:50;;;;;;;4.63;0.75;;;;;;;;;;4986243;28;20078;-83
2022/02/18 13:32:19;;;;;;;6.82;1.10;;;;;;;;;;4970539;28;20065;-82
2022/02/18 13:34:53;;;;;;;6.47;1.02;;;;;;;;;;4974679;28;20026;-82
2022/02/18 13:37:20;;;;;;;5.75;1.20;;;;;;;;;;4972536;28;20035;-82
2022/02/18 13:39:47;;;;;;;6.13;1.05;;;;;;;;;;4993711;28;20022;-84
2022/02/18 13:42:19;;;;;;;8.52;1.10;;;;;;;;;;4988375;28;20041;-82
2022/02/18 13:45:03;;;;;;;6.55;0.90;;;;;;;;;;4983411;28;20041;-83
2022/02/18 13:47:52;;;;;;;3.35;0.85;;;;;;;;;;4970714;28;20042;-83
2022/02/18 13:50:24;;;;;;;7.18;1.00;;;;;;;;;;4990829;28;20054;-82
2022/02/18 13:52:53;;;;;;;6.80;0.98;;;;;;;;;;4976355;28;20483;-82
2022/02/18 13:55:26;;;;;;;5.95;1.35;;;;;;;;;;4978381;28;20030;-83
2022/02/18 13:57:55;;;;;;;6.65;1.17;;;;;;;;;;4971205;28;20038;-84
2022/02/18 14:00:59;;;;;;;8.15;1.35;;;;;;;;;;4975759;28;20053;-83
2022/02/18 14:03:27;;;;;;;5.18;1.02;;;;;;;;;;4973015;28;20518;-83
2022/02/18 14:06:20;;;;;;;;;;;;;;;;;;;;;
2022/02/18 14:08:55;;;;;;;8.70;1.83;;;;;;;;;;4988639;28;20023;-83
2022/02/18 14:11:26;;;;;;;9.90;1.40;;;;;;;;;;4975185;28;20307;-83
2022/02/18 14:14:25;;;;;;;8.75;1.20;;;;;;;;;;4975242;28;20034;-84
2022/02/18 14:16:57;;;;;;;11.82;1.90;;;;;;;;;;4969845;28;20074;-83
2022/02/18 14:19:54;;;;;;;14.35;1.55;;;;;;;;;;4982817;28;20057;-82
2022/02/18 14:22:33;;;;;;;7.38;1.40;;;;;;;;;;4954886;28;21159;-84
2022/02/18 14:25:01;;;;;;;10.23;1.48;;;;;;;;;;4989796;28;20042;-83
2022/02/18 14:27:30;;;;;;;13.27;1.75;;;;;;;;;;4990859;28;20069;-84
2022/02/18 14:30:07;;;;;;;10.30;1.58;;;;;;;;;;4986967;28;20088;-82
2022/02/18 14:32:38;;;;;;;10.98;1.52;;;;;;;;;;4988714;28;20044;-83
2022/02/18 14:35:11;;;;;;;12.43;2.13;;;;;;;;;;4975434;28;20750;-81
2022/02/18 14:37:59;;;;;;;12.27;2.05;;;;;;;;;;4989389;28;20072;-83
2022/02/18 14:40:37;;;;;;;10.27;1.40;;;;;;;;;;4989442;28;20144;-82
2022/02/18 14:43:03;;;;;;;11.68;1.75;;;;;;;;;;5005912;28;20545;-81
2022/02/18 14:45:30;;;;;;;14.43;2.28;;;;;;;;;;4986134;28;20037;-82
2022/02/18 14:48:00;;;;;;;8.32;1.75;;;;;;;;;;5004431;28;20076;-82
2022/02/18 14:50:29;;;;;;;10.77;1.80;;;;;;;;;;4988808;28;20405;-83
2022/02/18 14:52:56;;;;;;;9.05;1.77;;;;;;;;;;4990224;28;20088;-85
2022/02/18 14:55:21;;;;;;;8.63;1.40;;;;;;;;;;5005456;28;20040;-84
2022/02/18 14:57:46;;;;;;;14.40;2.10;;;;;;;;;;4987422;28;20033;-83